sensor_id;sensor_type;location;lat;lon;timestamp;P1;durP1;ratioP1;P2;durP2;ratioP2
18875;SDS011;9570;50.854;13.778;2022-07-29T00:02:21;24.90;;;16.30;;
18875;SDS011;9570;50.854;13.778;2022-07-29T00:04:47;26.27;;;15.40;;
18875;SDS011;9570;50.854;13.778;2022-07-29T00:07:12;28.30;;;17.03;;
18875;SDS011;9570;50.854;13.778;2022-07-29T00:09:37;27.10;;;17.13;;
18875;SDS011;9570;50.854;13.778;2022-07-29T00:12:03;31.70;;;19.40;;
18875;SDS011;9570;50.854;13.778;2022-07-29T00:14:29;35.47;;;20.13;;
18875;SDS011;9570;50.854;13.778;2022-07-29T00:16:55;28.50;;;20.40;;
18875;SDS011;9570;50.854;13.778;2022-07-29T00:19:20;34.30;;;21.47;;
18875;SDS011;9570;50.854;13.778;2022-07-29T00:21:46;33.27;;;21.47;;
18875;SDS011;9570;50.854;13.778;2022-07-29T00:24:11;33.03;;;20.90;;
18875;SDS011;9570;50.854;13.778;2022-07-29T00:26:36;32.13;;;20.20;;
18875;SDS011;9570;50.854;13.778;2022-07-29T00:29:02;30.77;;;19.87;;
18875;SDS011;9570;50.854;13.778;2022-07-29T00:31:29;38.33;;;21.13;;
18875;SDS011;9570;50.854;13.778;2022-07-29T00:33:55;30.47;;;19.73;;
18875;SDS011;9570;50.854;13.778;2022-07-29T00:36:20;32.17;;;20.47;;
18875;SDS011;9570;50.854;13.778;2022-07-29T00:38:47;30.70;;;19.13;;
18875;SDS011;9570;50.854;13.778;2022-07-29T00:41:13;29.63;;;18.97;;
18875;SDS011;9570;50.854;13.778;2022-07-29T00:43:39;32.90;;;18.60;;
18875;SDS011;9570;50.854;13.778;2022-07-29T00:46:05;29.10;;;17.80;;
18875;SDS011;9570;50.854;13.778;2022-07-29T00:48:31;30.30;;;18.33;;
18875;SDS011;9570;50.854;13.778;2022-07-29T00:50:57;28.87;;;17.73;;
18875;SDS011;9570;50.854;13.778;2022-07-29T00:53:24;29.00;;;17.63;;
18875;SDS011;9570;50.854;13.778;2022-07-29T00:55:51;30.30;;;18.13;;
18875;SDS011;9570;50.854;13.778;2022-07-29T00:58:19;28.13;;;17.37;;
18875;SDS011;9570;50.854;13.778;2022-07-29T01:00:45;28.53;;;16.53;;
18875;SDS011;9570;50.854;13.778;2022-07-29T01:03:10;24.17;;;15.57;;
18875;SDS011;9570;50.854;13.778;2022-07-29T01:05:36;24.93;;;15.77;;
18875;SDS011;9570;50.854;13.778;2022-07-29T01:08:02;23.13;;;15.40;;
18875;SDS011;9570;50.854;13.778;2022-07-29T01:10:28;23.83;;;15.10;;
18875;SDS011;9570;50.854;13.778;2022-07-29T01:12:57;22.87;;;14.43;;
18875;SDS011;9570;50.854;13.778;2022-07-29T01:15:26;24.77;;;15.10;;
18875;SDS011;9570;50.854;13.778;2022-07-29T01:18:04;24.50;;;14.87;;
18875;SDS011;9570;50.854;13.778;2022-07-29T01:26:01;22.30;;;12.93;;
18875;SDS011;9570;50.854;13.778;2022-07-29T01:32:24;18.83;;;12.20;;
18875;SDS011;9570;50.854;13.778;2022-07-29T01:34:36;21.40;;;12.43;;
18875;SDS011;9570;50.854;13.778;2022-07-29T01:37:21;20.07;;;12.20;;
18875;SDS011;9570;50.854;13.778;2022-07-29T01:39:54;19.10;;;11.63;;
18875;SDS011;9570;50.854;13.778;2022-07-29T01:42:39;21.83;;;11.73;;
18875;SDS011;9570;50.854;13.778;2022-07-29T01:45:09;18.63;;;12.03;;
18875;SDS011;9570;50.854;13.778;2022-07-29T01:47:41;17.57;;;11.27;;
18875;SDS011;9570;50.854;13.778;2022-07-29T01:50:16;18.90;;;12.00;;
18875;SDS011;9570;50.854;13.778;2022-07-29T01:52:49;22.20;;;10.90;;
18875;SDS011;9570;50.854;13.778;2022-07-29T01:55:21;17.37;;;11.27;;
18875;SDS011;9570;50.854;13.778;2022-07-29T01:57:49;15.50;;;10.33;;
18875;SDS011;9570;50.854;13.778;2022-07-29T02:00:15;17.90;;;10.30;;
18875;SDS011;9570;50.854;13.778;2022-07-29T02:02:42;13.63;;;9.53;;
18875;SDS011;9570;50.854;13.778;2022-07-29T02:05:10;17.80;;;9.33;;
18875;SDS011;9570;50.854;13.778;2022-07-29T02:07:40;12.20;;;8.97;;
18875;SDS011;9570;50.854;13.778;2022-07-29T02:10:08;16.07;;;8.93;;
18875;SDS011;9570;50.854;13.778;2022-07-29T02:12:35;17.30;;;8.50;;
18875;SDS011;9570;50.854;13.778;2022-07-29T02:15:03;13.07;;;8.60;;
18875;SDS011;9570;50.854;13.778;2022-07-29T02:17:32;11.87;;;7.83;;
18875;SDS011;9570;50.854;13.778;2022-07-29T02:20:00;12.50;;;8.17;;
18875;SDS011;9570;50.854;13.778;2022-07-29T02:22:29;14.40;;;8.17;;
18875;SDS011;9570;50.854;13.778;2022-07-29T02:24:56;11.43;;;8.50;;
18875;SDS011;9570;50.854;13.778;2022-07-29T02:27:23;16.13;;;8.53;;
18875;SDS011;9570;50.854;13.778;2022-07-29T02:29:49;12.10;;;8.40;;
18875;SDS011;9570;50.854;13.778;2022-07-29T02:32:16;14.40;;;9.47;;
18875;SDS011;9570;50.854;13.778;2022-07-29T02:34:42;15.23;;;8.70;;
18875;SDS011;9570;50.854;13.778;2022-07-29T02:37:09;14.83;;;9.53;;
18875;SDS011;9570;50.854;13.778;2022-07-29T02:39:36;14.77;;;8.73;;
18875;SDS011;9570;50.854;13.778;2022-07-29T02:42:05;12.50;;;8.07;;
18875;SDS011;9570;50.854;13.778;2022-07-29T02:44:32;15.37;;;9.20;;
18875;SDS011;9570;50.854;13.778;2022-07-29T02:50:06;11.13;;;7.33;;
18875;SDS011;9570;50.854;13.778;2022-07-29T02:58:21;12.03;;;7.00;;
18875;SDS011;9570;50.854;13.778;2022-07-29T03:00:55;13.40;;;7.43;;
18875;SDS011;9570;50.854;13.778;2022-07-29T03:03:23;15.60;;;9.20;;
18875;SDS011;9570;50.854;13.778;2022-07-29T03:05:55;17.73;;;9.50;;
18875;SDS011;9570;50.854;13.778;2022-07-29T03:08:22;11.80;;;8.13;;
18875;SDS011;9570;50.854;13.778;2022-07-29T03:10:49;15.67;;;9.50;;
18875;SDS011;9570;50.854;13.778;2022-07-29T03:13:16;11.30;;;7.73;;
18875;SDS011;9570;50.854;13.778;2022-07-29T03:15:47;13.13;;;8.20;;
18875;SDS011;9570;50.854;13.778;2022-07-29T03:18:13;11.23;;;7.67;;
18875;SDS011;9570;50.854;13.778;2022-07-29T03:20:40;10.40;;;7.10;;
18875;SDS011;9570;50.854;13.778;2022-07-29T03:23:06;12.77;;;7.77;;
18875;SDS011;9570;50.854;13.778;2022-07-29T03:25:32;12.60;;;7.70;;
18875;SDS011;9570;50.854;13.778;2022-07-29T03:27:58;9.23;;;6.87;;
18875;SDS011;9570;50.854;13.778;2022-07-29T03:30:24;8.93;;;5.83;;
18875;SDS011;9570;50.854;13.778;2022-07-29T03:32:50;8.27;;;5.43;;
18875;SDS011;9570;50.854;13.778;2022-07-29T03:35:17;7.50;;;5.00;;
18875;SDS011;9570;50.854;13.778;2022-07-29T03:37:43;8.93;;;5.90;;
18875;SDS011;9570;50.854;13.778;2022-07-29T03:40:09;8.43;;;5.80;;
18875;SDS011;9570;50.854;13.778;2022-07-29T03:42:39;9.03;;;6.33;;
18875;SDS011;9570;50.854;13.778;2022-07-29T03:45:08;10.63;;;6.73;;
18875;SDS011;9570;50.854;13.778;2022-07-29T03:47:38;13.37;;;7.03;;
18875;SDS011;9570;50.854;13.778;2022-07-29T03:50:11;7.83;;;6.80;;
18875;SDS011;9570;50.854;13.778;2022-07-29T03:52:39;7.80;;;5.87;;
18875;SDS011;9570;50.854;13.778;2022-07-29T03:55:05;14.30;;;7.10;;
18875;SDS011;9570;50.854;13.778;2022-07-29T03:57:31;11.70;;;7.63;;
18875;SDS011;9570;50.854;13.778;2022-07-29T03:59:58;12.00;;;6.93;;
18875;SDS011;9570;50.854;13.778;2022-07-29T04:02:26;7.93;;;6.13;;
18875;SDS011;9570;50.854;13.778;2022-07-29T04:04:52;10.70;;;6.53;;
18875;SDS011;9570;50.854;13.778;2022-07-29T04:07:17;10.30;;;6.80;;
18875;SDS011;9570;50.854;13.778;2022-07-29T04:09:43;11.80;;;6.70;;
18875;SDS011;9570;50.854;13.778;2022-07-29T04:12:09;7.80;;;5.90;;
18875;SDS011;9570;50.854;13.778;2022-07-29T04:14:35;9.50;;;6.20;;
18875;SDS011;9570;50.854;13.778;2022-07-29T04:17:01;11.73;;;7.00;;
18875;SDS011;9570;50.854;13.778;2022-07-29T04:19:27;11.73;;;6.17;;
18875;SDS011;9570;50.854;13.778;2022-07-29T04:21:53;11.60;;;7.13;;
18875;SDS011;9570;50.854;13.778;2022-07-29T04:24:19;10.57;;;6.73;;
18875;SDS011;9570;50.854;13.778;2022-07-29T04:26:45;10.03;;;7.53;;
18875;SDS011;9570;50.854;13.778;2022-07-29T04:29:11;12.67;;;6.80;;
18875;SDS011;9570;50.854;13.778;2022-07-29T04:31:36;11.33;;;7.03;;
18875;SDS011;9570;50.854;13.778;2022-07-29T04:34:02;11.83;;;7.80;;
18875;SDS011;9570;50.854;13.778;2022-07-29T04:36:28;17.33;;;7.77;;
18875;SDS011;9570;50.854;13.778;2022-07-29T04:38:53;11.60;;;7.43;;
18875;SDS011;9570;50.854;13.778;2022-07-29T04:41:19;12.17;;;7.20;;
18875;SDS011;9570;50.854;13.778;2022-07-29T04:43:45;10.50;;;6.70;;
18875;SDS011;9570;50.854;13.778;2022-07-29T04:46:10;9.53;;;6.90;;
18875;SDS011;9570;50.854;13.778;2022-07-29T04:48:36;10.13;;;6.67;;
18875;SDS011;9570;50.854;13.778;2022-07-29T04:51:01;13.00;;;7.03;;
18875;SDS011;9570;50.854;13.778;2022-07-29T04:53:27;8.33;;;6.50;;
18875;SDS011;9570;50.854;13.778;2022-07-29T04:55:53;10.03;;;6.70;;
18875;SDS011;9570;50.854;13.778;2022-07-29T04:58:18;10.83;;;6.90;;
18875;SDS011;9570;50.854;13.778;2022-07-29T05:00:44;9.93;;;6.57;;
18875;SDS011;9570;50.854;13.778;2022-07-29T05:03:09;9.90;;;7.20;;
18875;SDS011;9570;50.854;13.778;2022-07-29T05:05:35;12.83;;;7.67;;
18875;SDS011;9570;50.854;13.778;2022-07-29T05:08:00;12.50;;;7.57;;
18875;SDS011;9570;50.854;13.778;2022-07-29T05:10:26;11.00;;;7.37;;
18875;SDS011;9570;50.854;13.778;2022-07-29T05:12:51;8.63;;;7.43;;
18875;SDS011;9570;50.854;13.778;2022-07-29T05:15:17;13.10;;;8.30;;
18875;SDS011;9570;50.854;13.778;2022-07-29T05:17:43;10.40;;;7.13;;
18875;SDS011;9570;50.854;13.778;2022-07-29T05:20:09;10.90;;;6.93;;
18875;SDS011;9570;50.854;13.778;2022-07-29T05:22:34;11.57;;;7.30;;
18875;SDS011;9570;50.854;13.778;2022-07-29T05:25:00;9.03;;;6.73;;
18875;SDS011;9570;50.854;13.778;2022-07-29T05:27:25;10.23;;;6.83;;
18875;SDS011;9570;50.854;13.778;2022-07-29T05:29:51;8.80;;;6.73;;
18875;SDS011;9570;50.854;13.778;2022-07-29T05:32:17;8.30;;;6.53;;
18875;SDS011;9570;50.854;13.778;2022-07-29T05:34:42;9.80;;;6.57;;
18875;SDS011;9570;50.854;13.778;2022-07-29T05:37:08;11.70;;;6.53;;
18875;SDS011;9570;50.854;13.778;2022-07-29T05:39:34;9.50;;;5.93;;
18875;SDS011;9570;50.854;13.778;2022-07-29T05:41:59;9.93;;;5.90;;
18875;SDS011;9570;50.854;13.778;2022-07-29T05:44:24;9.53;;;6.23;;
18875;SDS011;9570;50.854;13.778;2022-07-29T05:46:50;10.93;;;6.17;;
18875;SDS011;9570;50.854;13.778;2022-07-29T05:49:15;9.80;;;6.10;;
18875;SDS011;9570;50.854;13.778;2022-07-29T05:51:41;8.00;;;5.90;;
18875;SDS011;9570;50.854;13.778;2022-07-29T05:54:06;8.53;;;6.10;;
18875;SDS011;9570;50.854;13.778;2022-07-29T05:56:32;8.27;;;5.70;;
18875;SDS011;9570;50.854;13.778;2022-07-29T05:58:57;8.63;;;5.60;;
18875;SDS011;9570;50.854;13.778;2022-07-29T06:01:23;11.23;;;6.63;;
18875;SDS011;9570;50.854;13.778;2022-07-29T06:03:48;9.70;;;5.87;;
18875;SDS011;9570;50.854;13.778;2022-07-29T06:06:14;11.00;;;6.23;;
18875;SDS011;9570;50.854;13.778;2022-07-29T06:08:39;7.47;;;5.53;;
18875;SDS011;9570;50.854;13.778;2022-07-29T06:11:05;8.30;;;5.47;;
18875;SDS011;9570;50.854;13.778;2022-07-29T06:13:32;7.67;;;5.40;;
18875;SDS011;9570;50.854;13.778;2022-07-29T06:15:57;7.73;;;5.53;;
18875;SDS011;9570;50.854;13.778;2022-07-29T06:18:23;9.97;;;5.70;;
18875;SDS011;9570;50.854;13.778;2022-07-29T06:20:52;8.33;;;5.53;;
18875;SDS011;9570;50.854;13.778;2022-07-29T06:23:18;8.67;;;5.50;;
18875;SDS011;9570;50.854;13.778;2022-07-29T06:25:45;9.83;;;5.93;;
18875;SDS011;9570;50.854;13.778;2022-07-29T06:28:11;9.97;;;5.80;;
18875;SDS011;9570;50.854;13.778;2022-07-29T06:30:37;8.80;;;5.43;;
18875;SDS011;9570;50.854;13.778;2022-07-29T06:33:02;8.73;;;6.03;;
18875;SDS011;9570;50.854;13.778;2022-07-29T06:35:28;10.77;;;5.77;;
18875;SDS011;9570;50.854;13.778;2022-07-29T06:37:54;8.07;;;5.53;;
18875;SDS011;9570;50.854;13.778;2022-07-29T06:40:19;10.00;;;5.63;;
18875;SDS011;9570;50.854;13.778;2022-07-29T06:43:03;8.53;;;5.40;;
18875;SDS011;9570;50.854;13.778;2022-07-29T06:45:29;9.50;;;5.13;;
18875;SDS011;9570;50.854;13.778;2022-07-29T06:47:54;9.03;;;5.10;;
18875;SDS011;9570;50.854;13.778;2022-07-29T06:50:20;8.77;;;4.90;;
18875;SDS011;9570;50.854;13.778;2022-07-29T06:52:46;13.47;;;5.70;;
18875;SDS011;9570;50.854;13.778;2022-07-29T06:55:12;8.70;;;5.77;;
18875;SDS011;9570;50.854;13.778;2022-07-29T06:57:37;8.83;;;5.50;;
18875;SDS011;9570;50.854;13.778;2022-07-29T07:00:03;9.33;;;4.80;;
18875;SDS011;9570;50.854;13.778;2022-07-29T07:02:30;16.40;;;5.17;;
18875;SDS011;9570;50.854;13.778;2022-07-29T07:04:55;6.10;;;4.93;;
18875;SDS011;9570;50.854;13.778;2022-07-29T07:07:21;6.23;;;4.50;;
18875;SDS011;9570;50.854;13.778;2022-07-29T07:09:46;8.97;;;3.93;;
18875;SDS011;9570;50.854;13.778;2022-07-29T07:12:12;7.80;;;3.83;;
18875;SDS011;9570;50.854;13.778;2022-07-29T07:14:37;11.03;;;4.40;;
18875;SDS011;9570;50.854;13.778;2022-07-29T07:17:04;8.47;;;4.13;;
18875;SDS011;9570;50.854;13.778;2022-07-29T07:19:31;5.87;;;4.07;;
18875;SDS011;9570;50.854;13.778;2022-07-29T07:21:57;5.43;;;3.40;;
18875;SDS011;9570;50.854;13.778;2022-07-29T07:24:22;4.00;;;2.70;;
18875;SDS011;9570;50.854;13.778;2022-07-29T07:26:48;4.37;;;2.97;;
18875;SDS011;9570;50.854;13.778;2022-07-29T07:29:13;5.40;;;2.93;;
18875;SDS011;9570;50.854;13.778;2022-07-29T07:31:39;5.77;;;2.70;;
18875;SDS011;9570;50.854;13.778;2022-07-29T07:34:04;4.13;;;2.70;;
18875;SDS011;9570;50.854;13.778;2022-07-29T07:36:30;3.90;;;2.67;;
18875;SDS011;9570;50.854;13.778;2022-07-29T07:38:55;5.83;;;2.73;;
18875;SDS011;9570;50.854;13.778;2022-07-29T07:41:21;4.33;;;2.77;;
18875;SDS011;9570;50.854;13.778;2022-07-29T07:43:47;3.53;;;2.73;;
18875;SDS011;9570;50.854;13.778;2022-07-29T07:46:12;6.60;;;2.47;;
18875;SDS011;9570;50.854;13.778;2022-07-29T07:48:38;4.80;;;2.73;;
18875;SDS011;9570;50.854;13.778;2022-07-29T07:51:03;4.37;;;2.20;;
18875;SDS011;9570;50.854;13.778;2022-07-29T07:53:29;4.47;;;2.50;;
18875;SDS011;9570;50.854;13.778;2022-07-29T07:55:55;4.13;;;2.60;;
18875;SDS011;9570;50.854;13.778;2022-07-29T07:58:21;4.87;;;2.30;;
18875;SDS011;9570;50.854;13.778;2022-07-29T08:00:46;3.13;;;2.57;;
18875;SDS011;9570;50.854;13.778;2022-07-29T08:03:12;4.80;;;2.30;;
18875;SDS011;9570;50.854;13.778;2022-07-29T08:05:38;3.90;;;2.33;;
18875;SDS011;9570;50.854;13.778;2022-07-29T08:08:04;3.37;;;2.23;;
18875;SDS011;9570;50.854;13.778;2022-07-29T08:10:30;4.57;;;2.30;;
18875;SDS011;9570;50.854;13.778;2022-07-29T08:13:14;3.80;;;2.30;;
18875;SDS011;9570;50.854;13.778;2022-07-29T08:15:39;5.33;;;2.60;;
18875;SDS011;9570;50.854;13.778;2022-07-29T08:18:06;5.90;;;2.70;;
18875;SDS011;9570;50.854;13.778;2022-07-29T08:20:32;5.47;;;2.47;;
18875;SDS011;9570;50.854;13.778;2022-07-29T08:23:00;4.77;;;2.30;;
18875;SDS011;9570;50.854;13.778;2022-07-29T08:25:26;2.73;;;2.33;;
18875;SDS011;9570;50.854;13.778;2022-07-29T08:27:52;5.53;;;2.40;;
18875;SDS011;9570;50.854;13.778;2022-07-29T08:30:17;6.33;;;2.17;;
18875;SDS011;9570;50.854;13.778;2022-07-29T08:32:43;3.40;;;2.37;;
18875;SDS011;9570;50.854;13.778;2022-07-29T08:35:08;5.10;;;2.37;;
18875;SDS011;9570;50.854;13.778;2022-07-29T08:37:34;2.80;;;1.87;;
18875;SDS011;9570;50.854;13.778;2022-07-29T08:39:59;2.10;;;1.80;;
18875;SDS011;9570;50.854;13.778;2022-07-29T08:42:25;3.73;;;2.30;;
18875;SDS011;9570;50.854;13.778;2022-07-29T08:44:50;5.63;;;2.17;;
18875;SDS011;9570;50.854;13.778;2022-07-29T08:47:16;4.00;;;2.33;;
18875;SDS011;9570;50.854;13.778;2022-07-29T08:49:42;3.30;;;2.20;;
18875;SDS011;9570;50.854;13.778;2022-07-29T08:52:09;2.40;;;1.83;;
18875;SDS011;9570;50.854;13.778;2022-07-29T08:54:36;5.13;;;2.00;;
18875;SDS011;9570;50.854;13.778;2022-07-29T08:57:03;3.20;;;2.13;;
18875;SDS011;9570;50.854;13.778;2022-07-29T08:59:29;4.30;;;2.43;;
18875;SDS011;9570;50.854;13.778;2022-07-29T09:01:57;5.30;;;2.40;;
18875;SDS011;9570;50.854;13.778;2022-07-29T09:04:25;2.90;;;2.10;;
18875;SDS011;9570;50.854;13.778;2022-07-29T09:06:54;2.80;;;1.97;;
18875;SDS011;9570;50.854;13.778;2022-07-29T09:09:25;5.07;;;2.30;;
18875;SDS011;9570;50.854;13.778;2022-07-29T09:11:50;3.73;;;2.37;;
18875;SDS011;9570;50.854;13.778;2022-07-29T09:14:18;4.40;;;2.30;;
18875;SDS011;9570;50.854;13.778;2022-07-29T09:16:44;2.40;;;2.20;;
18875;SDS011;9570;50.854;13.778;2022-07-29T09:19:19;3.63;;;2.30;;
18875;SDS011;9570;50.854;13.778;2022-07-29T09:21:55;5.07;;;2.60;;
18875;SDS011;9570;50.854;13.778;2022-07-29T09:24:23;5.47;;;2.27;;
18875;SDS011;9570;50.854;13.778;2022-07-29T09:27:18;5.00;;;2.10;;
18875;SDS011;9570;50.854;13.778;2022-07-29T09:29:57;3.40;;;2.07;;
18875;SDS011;9570;50.854;13.778;2022-07-29T09:32:28;5.77;;;2.20;;
18875;SDS011;9570;50.854;13.778;2022-07-29T09:37:40;5.20;;;2.40;;
18875;SDS011;9570;50.854;13.778;2022-07-29T09:40:11;3.67;;;2.43;;
18875;SDS011;9570;50.854;13.778;2022-07-29T09:42:41;5.03;;;2.30;;
18875;SDS011;9570;50.854;13.778;2022-07-29T09:45:06;3.20;;;2.20;;
18875;SDS011;9570;50.854;13.778;2022-07-29T09:47:43;3.30;;;2.20;;
18875;SDS011;9570;50.854;13.778;2022-07-29T09:50:10;2.90;;;2.30;;
18875;SDS011;9570;50.854;13.778;2022-07-29T09:52:47;3.60;;;2.30;;
18875;SDS011;9570;50.854;13.778;2022-07-29T09:55:14;7.03;;;2.50;;
18875;SDS011;9570;50.854;13.778;2022-07-29T09:57:40;4.03;;;2.40;;
18875;SDS011;9570;50.854;13.778;2022-07-29T10:00:07;2.70;;;2.00;;
18875;SDS011;9570;50.854;13.778;2022-07-29T10:02:39;4.50;;;2.23;;
18875;SDS011;9570;50.854;13.778;2022-07-29T10:05:06;5.20;;;2.20;;
18875;SDS011;9570;50.854;13.778;2022-07-29T10:10:22;2.83;;;2.10;;
18875;SDS011;9570;50.854;13.778;2022-07-29T10:12:50;6.60;;;2.37;;
18875;SDS011;9570;50.854;13.778;2022-07-29T10:15:17;4.00;;;2.57;;
18875;SDS011;9570;50.854;13.778;2022-07-29T10:17:43;4.00;;;2.40;;
18875;SDS011;9570;50.854;13.778;2022-07-29T10:20:09;4.93;;;2.30;;
18875;SDS011;9570;50.854;13.778;2022-07-29T10:22:35;3.93;;;2.20;;
18875;SDS011;9570;50.854;13.778;2022-07-29T10:25:01;4.87;;;2.50;;
18875;SDS011;9570;50.854;13.778;2022-07-29T10:27:27;4.57;;;2.38;;
18875;SDS011;9570;50.854;13.778;2022-07-29T10:29:53;4.88;;;2.47;;
18875;SDS011;9570;50.854;13.778;2022-07-29T10:32:28;3.33;;;2.22;;
18875;SDS011;9570;50.854;13.778;2022-07-29T10:35:27;4.60;;;2.25;;
18875;SDS011;9570;50.854;13.778;2022-07-29T10:38:21;3.55;;;1.88;;
18875;SDS011;9570;50.854;13.778;2022-07-29T10:41:13;5.30;;;2.03;;
18875;SDS011;9570;50.854;13.778;2022-07-29T10:44:01;3.10;;;1.90;;
18875;SDS011;9570;50.854;13.778;2022-07-29T10:46:53;2.95;;;2.60;;
18875;SDS011;9570;50.854;13.778;2022-07-29T10:49:20;2.80;;;2.20;;
18875;SDS011;9570;50.854;13.778;2022-07-29T10:57:21;4.43;;;2.30;;
18875;SDS011;9570;50.854;13.778;2022-07-29T11:05:03;2.47;;;2.00;;
18875;SDS011;9570;50.854;13.778;2022-07-29T11:07:30;5.68;;;2.25;;
18875;SDS011;9570;50.854;13.778;2022-07-29T11:15:12;4.10;;;2.20;;
18875;SDS011;9570;50.854;13.778;2022-07-29T11:20:31;8.33;;;2.40;;
18875;SDS011;9570;50.854;13.778;2022-07-29T11:23:00;5.83;;;2.50;;
18875;SDS011;9570;50.854;13.778;2022-07-29T11:25:27;4.37;;;2.30;;
18875;SDS011;9570;50.854;13.778;2022-07-29T11:27:53;2.90;;;2.47;;
18875;SDS011;9570;50.854;13.778;2022-07-29T11:30:49;4.60;;;2.47;;
18875;SDS011;9570;50.854;13.778;2022-07-29T11:33:32;5.57;;;2.47;;
18875;SDS011;9570;50.854;13.778;2022-07-29T11:36:08;5.10;;;2.50;;
18875;SDS011;9570;50.854;13.778;2022-07-29T11:38:35;2.80;;;2.33;;
18875;SDS011;9570;50.854;13.778;2022-07-29T11:43:45;5.23;;;2.60;;
18875;SDS011;9570;50.854;13.778;2022-07-29T11:46:12;3.90;;;2.23;;
18875;SDS011;9570;50.854;13.778;2022-07-29T11:48:41;4.00;;;2.27;;
18875;SDS011;9570;50.854;13.778;2022-07-29T11:51:11;2.63;;;2.40;;
18875;SDS011;9570;50.854;13.778;2022-07-29T11:53:37;3.53;;;2.33;;
18875;SDS011;9570;50.854;13.778;2022-07-29T11:56:03;8.17;;;2.90;;
18875;SDS011;9570;50.854;13.778;2022-07-29T11:58:32;3.53;;;2.30;;
18875;SDS011;9570;50.854;13.778;2022-07-29T12:00:59;3.43;;;2.50;;
18875;SDS011;9570;50.854;13.778;2022-07-29T12:03:26;5.47;;;2.70;;
18875;SDS011;9570;50.854;13.778;2022-07-29T12:05:53;4.63;;;2.43;;
18875;SDS011;9570;50.854;13.778;2022-07-29T12:08:20;4.47;;;2.50;;
18875;SDS011;9570;50.854;13.778;2022-07-29T12:10:47;4.93;;;2.50;;
18875;SDS011;9570;50.854;13.778;2022-07-29T12:13:15;6.00;;;2.63;;
18875;SDS011;9570;50.854;13.778;2022-07-29T12:15:42;4.20;;;2.53;;
18875;SDS011;9570;50.854;13.778;2022-07-29T12:18:17;4.73;;;2.57;;
18875;SDS011;9570;50.854;13.778;2022-07-29T12:20:45;3.50;;;2.60;;
18875;SDS011;9570;50.854;13.778;2022-07-29T12:23:11;2.90;;;2.50;;
18875;SDS011;9570;50.854;13.778;2022-07-29T12:25:37;4.67;;;2.70;;
18875;SDS011;9570;50.854;13.778;2022-07-29T12:28:04;3.33;;;2.60;;
18875;SDS011;9570;50.854;13.778;2022-07-29T12:30:38;4.17;;;2.23;;
18875;SDS011;9570;50.854;13.778;2022-07-29T12:33:26;3.80;;;2.40;;
18875;SDS011;9570;50.854;13.778;2022-07-29T12:35:56;3.87;;;2.70;;
18875;SDS011;9570;50.854;13.778;2022-07-29T12:38:23;4.60;;;2.40;;
18875;SDS011;9570;50.854;13.778;2022-07-29T12:40:49;3.97;;;2.60;;
18875;SDS011;9570;50.854;13.778;2022-07-29T12:43:17;6.40;;;2.50;;
18875;SDS011;9570;50.854;13.778;2022-07-29T12:45:46;4.60;;;2.60;;
18875;SDS011;9570;50.854;13.778;2022-07-29T12:48:15;4.80;;;2.40;;
18875;SDS011;9570;50.854;13.778;2022-07-29T12:51:00;4.53;;;2.40;;
18875;SDS011;9570;50.854;13.778;2022-07-29T12:53:26;6.27;;;2.70;;
18875;SDS011;9570;50.854;13.778;2022-07-29T12:55:52;5.50;;;2.60;;
18875;SDS011;9570;50.854;13.778;2022-07-29T12:58:38;6.63;;;2.70;;
18875;SDS011;9570;50.854;13.778;2022-07-29T13:01:17;7.03;;;2.67;;
18875;SDS011;9570;50.854;13.778;2022-07-29T13:03:46;4.30;;;2.20;;
18875;SDS011;9570;50.854;13.778;2022-07-29T13:09:17;5.10;;;2.60;;
18875;SDS011;9570;50.854;13.778;2022-07-29T13:11:45;5.03;;;2.43;;
18875;SDS011;9570;50.854;13.778;2022-07-29T13:14:12;3.33;;;2.30;;
18875;SDS011;9570;50.854;13.778;2022-07-29T13:17:02;4.70;;;2.50;;
18875;SDS011;9570;50.854;13.778;2022-07-29T13:19:37;5.40;;;2.63;;
18875;SDS011;9570;50.854;13.778;2022-07-29T13:22:07;8.10;;;2.60;;
18875;SDS011;9570;50.854;13.778;2022-07-29T13:24:33;3.40;;;2.27;;
18875;SDS011;9570;50.854;13.778;2022-07-29T13:27:09;3.37;;;2.20;;
18875;SDS011;9570;50.854;13.778;2022-07-29T13:29:35;4.10;;;2.73;;
18875;SDS011;9570;50.854;13.778;2022-07-29T13:32:02;3.50;;;2.63;;
18875;SDS011;9570;50.854;13.778;2022-07-29T13:34:27;4.80;;;2.30;;
18875;SDS011;9570;50.854;13.778;2022-07-29T13:36:53;6.40;;;2.80;;
18875;SDS011;9570;50.854;13.778;2022-07-29T13:39:18;6.63;;;2.90;;
18875;SDS011;9570;50.854;13.778;2022-07-29T13:41:44;4.37;;;2.30;;
18875;SDS011;9570;50.854;13.778;2022-07-29T13:44:09;2.90;;;2.50;;
18875;SDS011;9570;50.854;13.778;2022-07-29T13:46:35;5.03;;;2.63;;
18875;SDS011;9570;50.854;13.778;2022-07-29T13:49:00;2.50;;;2.30;;
18875;SDS011;9570;50.854;13.778;2022-07-29T13:51:26;4.87;;;2.43;;
18875;SDS011;9570;50.854;13.778;2022-07-29T13:53:51;3.60;;;2.37;;
18875;SDS011;9570;50.854;13.778;2022-07-29T13:56:17;2.77;;;2.47;;
18875;SDS011;9570;50.854;13.778;2022-07-29T13:58:42;5.43;;;2.70;;
18875;SDS011;9570;50.854;13.778;2022-07-29T14:01:07;5.90;;;2.60;;
18875;SDS011;9570;50.854;13.778;2022-07-29T14:03:33;5.30;;;2.50;;
18875;SDS011;9570;50.854;13.778;2022-07-29T14:05:59;4.07;;;2.47;;
18875;SDS011;9570;50.854;13.778;2022-07-29T14:08:24;3.17;;;2.40;;
18875;SDS011;9570;50.854;13.778;2022-07-29T14:10:50;3.90;;;2.57;;
18875;SDS011;9570;50.854;13.778;2022-07-29T14:13:16;5.40;;;2.93;;
18875;SDS011;9570;50.854;13.778;2022-07-29T14:15:41;6.73;;;2.40;;
18875;SDS011;9570;50.854;13.778;2022-07-29T14:18:07;3.70;;;2.47;;
18875;SDS011;9570;50.854;13.778;2022-07-29T14:20:32;8.03;;;2.90;;
18875;SDS011;9570;50.854;13.778;2022-07-29T14:22:58;3.43;;;2.60;;
18875;SDS011;9570;50.854;13.778;2022-07-29T14:25:23;5.13;;;2.77;;
18875;SDS011;9570;50.854;13.778;2022-07-29T14:27:49;4.23;;;2.37;;
18875;SDS011;9570;50.854;13.778;2022-07-29T14:30:14;5.10;;;2.40;;
18875;SDS011;9570;50.854;13.778;2022-07-29T14:32:40;3.63;;;2.50;;
18875;SDS011;9570;50.854;13.778;2022-07-29T14:35:06;3.83;;;2.50;;
18875;SDS011;9570;50.854;13.778;2022-07-29T14:37:33;4.40;;;2.43;;
18875;SDS011;9570;50.854;13.778;2022-07-29T14:39:59;6.90;;;2.67;;
18875;SDS011;9570;50.854;13.778;2022-07-29T14:42:27;4.90;;;2.80;;
18875;SDS011;9570;50.854;13.778;2022-07-29T14:44:53;6.00;;;2.50;;
18875;SDS011;9570;50.854;13.778;2022-07-29T14:47:18;5.33;;;2.80;;
18875;SDS011;9570;50.854;13.778;2022-07-29T14:49:44;4.40;;;2.57;;
18875;SDS011;9570;50.854;13.778;2022-07-29T14:52:09;5.33;;;2.63;;
18875;SDS011;9570;50.854;13.778;2022-07-29T14:54:35;4.57;;;2.60;;
18875;SDS011;9570;50.854;13.778;2022-07-29T14:57:00;3.83;;;2.60;;
18875;SDS011;9570;50.854;13.778;2022-07-29T14:59:26;3.17;;;2.47;;
18875;SDS011;9570;50.854;13.778;2022-07-29T15:01:51;5.50;;;2.70;;
18875;SDS011;9570;50.854;13.778;2022-07-29T15:04:17;3.57;;;2.30;;
18875;SDS011;9570;50.854;13.778;2022-07-29T15:06:43;5.20;;;2.70;;
18875;SDS011;9570;50.854;13.778;2022-07-29T15:09:08;3.83;;;2.47;;
18875;SDS011;9570;50.854;13.778;2022-07-29T15:11:34;3.60;;;2.50;;
18875;SDS011;9570;50.854;13.778;2022-07-29T15:13:59;4.70;;;2.37;;
18875;SDS011;9570;50.854;13.778;2022-07-29T15:16:25;3.90;;;2.77;;
18875;SDS011;9570;50.854;13.778;2022-07-29T15:18:50;4.93;;;2.40;;
18875;SDS011;9570;50.854;13.778;2022-07-29T15:21:16;4.47;;;2.50;;
18875;SDS011;9570;50.854;13.778;2022-07-29T15:23:41;6.27;;;2.70;;
18875;SDS011;9570;50.854;13.778;2022-07-29T15:26:06;4.37;;;2.60;;
18875;SDS011;9570;50.854;13.778;2022-07-29T15:28:33;4.17;;;2.80;;
18875;SDS011;9570;50.854;13.778;2022-07-29T15:30:58;20.60;;;3.53;;
18875;SDS011;9570;50.854;13.778;2022-07-29T15:33:24;4.50;;;2.60;;